createdAt,value
2023-03-21T00:01:52.930Z,82.16
2023-03-21T00:04:20.863Z,82.54
2023-03-21T00:06:48.893Z,83.08
2023-03-21T00:09:16.445Z,82.98
2023-03-21T00:11:44.866Z,83.49
2023-03-21T00:14:14.367Z,83.79
2023-03-21T00:16:45.808Z,83.90
2023-03-21T00:19:15.961Z,82.88
2023-03-21T00:21:59.545Z,83.53
2023-03-21T00:24:31.290Z,83.62
2023-03-21T00:27:10.681Z,83.89
2023-03-21T00:29:46.644Z,83.81
2023-03-21T00:32:14.301Z,83.88
2023-03-21T00:34:57.634Z,84.08
2023-03-21T00:37:30.037Z,84.18
2023-03-21T00:39:57.608Z,84.54
2023-03-21T00:42:25.185Z,83.99
2023-03-21T00:44:52.780Z,84.56
2023-03-21T00:47:20.513Z,84.67
2023-03-21T00:49:49.648Z,84.79
2023-03-21T00:52:27.546Z,84.90
2023-03-21T00:55:07.255Z,84.64
2023-03-21T00:57:39.310Z,84.89
2023-03-21T01:00:10.327Z,84.69
2023-03-21T01:02:38.501Z,84.71
2023-03-21T01:05:08.348Z,85.35
2023-03-21T01:07:35.961Z,85.83
2023-03-21T01:10:03.662Z,86.15
2023-03-21T01:12:31.280Z,86.39
2023-03-21T01:14:58.865Z,86.33
2023-03-21T01:17:26.462Z,86.24
2023-03-21T01:19:53.998Z,86.18
2023-03-21T01:22:22.923Z,85.98
2023-03-21T01:24:55.366Z,86.06
2023-03-21T01:27:24.478Z,86.78
2023-03-21T01:29:52.274Z,86.38
2023-03-21T01:32:19.956Z,86.96
2023-03-21T01:34:47.666Z,86.88
2023-03-21T01:37:17.733Z,87.53
2023-03-21T01:39:50.142Z,87.15
2023-03-21T01:42:18.046Z,87.69
2023-03-21T01:44:58.755Z,87.26
2023-03-21T01:47:34.906Z,87.02
2023-03-21T01:50:08.181Z,87.65
2023-03-21T01:52:46.604Z,87.36
2023-03-21T01:55:19.395Z,87.22
2023-03-21T01:58:05.822Z,86.93
2023-03-21T02:01:11.712Z,87.73
2023-03-21T02:03:51.300Z,87.88
2023-03-21T02:06:36.659Z,88.80
2023-03-21T02:09:19.845Z,88.15
2023-03-21T02:11:49.258Z,87.64
2023-03-21T02:14:29.028Z,87.84
2023-03-21T02:17:10.786Z,88.93
2023-03-21T02:20:11.278Z,88.85
2023-03-21T02:22:55.492Z,88.65
2023-03-21T02:25:46.584Z,88.59
2023-03-21T02:28:21.098Z,88.82
2023-03-21T02:31:14.424Z,89.12
2023-03-21T02:34:12.342Z,89.37
2023-03-21T02:37:01.084Z,89.67
2023-03-21T02:39:33.924Z,89.79
2023-03-21T02:42:08.104Z,89.70
2023-03-21T02:44:43.234Z,89.75
2023-03-21T02:47:14.407Z,89.67
2023-03-21T02:49:48.898Z,89.40
2023-03-21T02:52:37.478Z,89.49
2023-03-21T02:55:13.833Z,89.64
2023-03-21T02:57:50.976Z,89.93
2023-03-21T03:00:22.992Z,90.42
2023-03-21T03:03:02.730Z,90.46
2023-03-21T03:05:42.326Z,89.95
2023-03-21T03:08:32.442Z,90.14
2023-03-21T03:15:28.275Z,90.32
2023-03-21T03:18:02.840Z,90.59
2023-03-21T03:20:39.282Z,90.37
2023-03-21T03:23:20.601Z,90.61
2023-03-21T03:25:54.110Z,90.35
2023-03-21T03:28:27.152Z,90.83
2023-03-21T03:31:08.829Z,90.76
2023-03-21T03:33:47.709Z,91.07
2023-03-21T03:36:33.413Z,91.16
2023-03-21T03:39:10.297Z,91.34
2023-03-21T03:42:12.712Z,91.89
2023-03-21T03:44:38.325Z,91.93
2023-03-21T03:47:11.839Z,92.68
2023-03-21T03:49:47.411Z,92.61
2023-03-21T03:52:18.575Z,92.27
2023-03-21T03:54:52.935Z,92.15
2023-03-21T03:57:23.649Z,91.63
2023-03-21T03:59:51.464Z,91.95
2023-03-21T04:02:37.535Z,91.45
2023-03-21T04:05:06.386Z,91.74
2023-03-21T04:07:33.973Z,92.08
2023-03-21T04:10:03.769Z,92.71
2023-03-21T04:12:34.534Z,92.15
2023-03-21T04:15:16.309Z,92.34
2023-03-21T04:17:49.565Z,92.60
2023-03-21T04:20:26.692Z,92.68
2023-03-21T04:23:03.030Z,92.32
2023-03-21T04:25:34.946Z,92.81
2023-03-21T04:28:05.691Z,92.77
2023-03-21T04:30:43.369Z,92.87
2023-03-21T04:33:16.977Z,93.28
2023-03-21T04:35:56.058Z,93.26
2023-03-21T04:38:26.494Z,93.33
2023-03-21T04:40:55.660Z,93.45
2023-03-21T04:43:24.200Z,93.46
2023-03-21T04:45:52.649Z,93.53
2023-03-21T04:48:24.401Z,93.56
2023-03-21T04:50:53.276Z,94.36
2023-03-21T04:53:20.943Z,94.03
2023-03-21T04:55:52.431Z,93.58
2023-03-21T04:58:22.606Z,93.57
2023-03-21T05:00:52.944Z,93.25
2023-03-21T05:03:21.869Z,93.90
2023-03-21T05:05:49.927Z,93.83
2023-03-21T05:08:19.645Z,93.73
2023-03-21T05:10:47.454Z,94.23
2023-03-21T05:13:15.501Z,93.78
2023-03-21T05:15:44.432Z,94.05
2023-03-21T05:18:12.198Z,93.83
2023-03-21T05:20:57.987Z,93.98
2023-03-21T05:23:26.113Z,94.01
2023-03-21T05:25:53.763Z,94.03
2023-03-21T05:28:31.750Z,94.08
2023-03-21T05:31:02.403Z,94.52
2023-03-21T05:33:30.363Z,94.55
2023-03-21T05:35:59.008Z,94.46
2023-03-21T05:38:31.013Z,94.70
2023-03-21T05:40:59.291Z,94.45
2023-03-21T05:43:27.886Z,94.00
2023-03-21T05:45:55.994Z,94.12
2023-03-21T05:48:26.486Z,94.04
2023-03-21T05:51:09.219Z,94.30
2023-03-21T05:53:36.835Z,94.10
2023-03-21T05:56:04.780Z,94.34
2023-03-21T05:59:01.617Z,94.28
2023-03-21T06:01:31.853Z,94.22
2023-03-21T06:04:10.579Z,94.66
2023-03-21T06:06:38.134Z,94.49
2023-03-21T06:09:06.513Z,93.97
2023-03-21T06:11:36.952Z,93.90
2023-03-21T06:14:22.579Z,94.11
2023-03-21T06:17:16.484Z,94.18
2023-03-21T06:19:50.787Z,93.96
2023-03-21T06:22:23.518Z,93.80
2023-03-21T06:24:51.183Z,93.84
2023-03-21T06:27:19.154Z,93.55
2023-03-21T06:29:51.660Z,92.85
2023-03-21T06:32:19.571Z,92.58
2023-03-21T06:34:49.326Z,92.88
2023-03-21T06:37:18.741Z,92.75
2023-03-21T06:39:47.695Z,92.73
2023-03-21T06:42:15.850Z,92.25
2023-03-21T06:44:43.958Z,91.58
2023-03-21T06:47:15.633Z,91.93
2023-03-21T06:49:45.667Z,90.95
2023-03-21T06:52:14.214Z,90.11
2023-03-21T06:54:43.836Z,89.75
2023-03-21T06:57:13.558Z,89.45
2023-03-21T06:59:42.441Z,87.73
2023-03-21T07:02:14.513Z,86.98
2023-03-21T07:04:57.715Z,86.40
2023-03-21T07:07:29.748Z,85.93
2023-03-21T07:09:58.997Z,85.98
2023-03-21T07:12:33.970Z,85.21
2023-03-21T07:15:22.426Z,85.59
2023-03-21T07:17:50.351Z,85.19
2023-03-21T07:20:18.239Z,85.04
2023-03-21T07:22:45.894Z,85.08
2023-03-21T07:25:17.237Z,84.68
2023-03-21T07:27:44.882Z,84.83
2023-03-21T07:30:13.796Z,84.06
2023-03-21T07:32:41.368Z,82.84
2023-03-21T07:35:11.969Z,82.40
2023-03-21T07:37:39.790Z,80.92
2023-03-21T07:40:10.705Z,79.06
2023-03-21T07:42:42.632Z,77.56
2023-03-21T07:45:15.568Z,76.19
2023-03-21T07:47:43.603Z,74.82
2023-03-21T07:50:11.478Z,71.26
2023-03-21T07:52:39.179Z,69.67
2023-03-21T07:55:07.643Z,69.50
2023-03-21T07:57:35.499Z,69.11
2023-03-21T08:00:05.271Z,68.86
2023-03-21T08:02:41.146Z,67.16
2023-03-21T08:05:11.465Z,66.89
2023-03-21T08:07:39.075Z,66.42
2023-03-21T08:10:07.961Z,64.64
2023-03-21T08:12:35.540Z,64.94
2023-03-21T08:15:04.875Z,63.22
2023-03-21T08:17:32.430Z,62.94
2023-03-21T08:19:59.946Z,65.12
2023-03-21T08:22:27.519Z,65.05
2023-03-21T08:24:55.508Z,61.24
2023-03-21T08:27:23.063Z,64.76
2023-03-21T08:29:50.581Z,65.00
2023-03-21T08:32:20.515Z,60.69
2023-03-21T08:34:48.033Z,59.57
2023-03-21T08:37:15.600Z,57.73
2023-03-21T08:39:43.392Z,55.77
2023-03-21T08:42:10.926Z,55.37
2023-03-21T08:44:38.933Z,55.68
2023-03-21T08:47:08.105Z,53.10
2023-03-21T08:49:37.471Z,53.37
2023-03-21T08:52:06.517Z,53.86
2023-03-21T08:54:34.130Z,53.83
2023-03-21T08:57:01.664Z,52.43
2023-03-21T08:59:29.267Z,51.98
2023-03-21T09:01:56.866Z,52.93
2023-03-21T09:04:25.901Z,53.94
2023-03-21T09:06:56.180Z,53.80
2023-03-21T09:09:23.920Z,54.49
2023-03-21T09:11:52.578Z,53.97
2023-03-21T09:14:21.915Z,54.05
2023-03-21T09:16:54.197Z,54.27
2023-03-21T09:19:25.696Z,54.13
2023-03-21T09:21:55.770Z,54.76
2023-03-21T09:24:24.109Z,53.99
2023-03-21T09:26:51.765Z,53.56
2023-03-21T09:29:21.266Z,54.10
2023-03-21T09:31:49.658Z,58.88
2023-03-21T09:34:17.261Z,57.25
2023-03-21T09:36:48.251Z,59.63
2023-03-21T09:39:17.278Z,55.70
2023-03-21T09:42:06.313Z,57.89
2023-03-21T09:44:44.941Z,58.90
2023-03-21T09:47:20.700Z,58.84
2023-03-21T09:49:51.875Z,56.49
2023-03-21T09:52:24.961Z,53.37
2023-03-21T09:54:55.572Z,55.14
2023-03-21T09:57:32.951Z,57.11
2023-03-21T10:00:09.839Z,56.95
2023-03-21T10:02:45.473Z,57.89
2023-03-21T10:05:18.802Z,57.68
2023-03-21T10:07:48.740Z,55.36
2023-03-21T10:10:21.353Z,57.35
2023-03-21T10:12:53.713Z,57.79
2023-03-21T10:15:24.335Z,56.85
2023-03-21T10:17:59.264Z,56.07
2023-03-21T10:20:28.446Z,54.20
2023-03-21T10:22:59.678Z,56.90
2023-03-21T10:25:32.582Z,53.07
2023-03-21T10:28:02.750Z,55.39
2023-03-21T10:30:37.833Z,55.42
2023-03-21T10:33:09.500Z,54.71
2023-03-21T10:35:40.339Z,55.26
2023-03-21T10:38:15.599Z,54.71
2023-03-21T10:40:45.211Z,54.95
2023-03-21T10:43:35.328Z,55.63
2023-03-21T10:46:08.870Z,53.81
2023-03-21T10:48:38.171Z,54.45
2023-03-21T10:51:08.938Z,55.06
2023-03-21T10:53:39.771Z,54.58
2023-03-21T10:56:12.552Z,54.52
2023-03-21T10:58:43.636Z,54.53
2023-03-21T11:01:15.983Z,53.98
2023-03-21T11:03:46.792Z,54.50
2023-03-21T11:06:18.691Z,55.14
2023-03-21T11:08:49.854Z,54.94
2023-03-21T11:11:28.139Z,52.92
2023-03-21T11:14:01.014Z,52.96
2023-03-21T11:16:36.472Z,52.97
2023-03-21T11:19:13.376Z,54.27
2023-03-21T11:21:41.110Z,53.17
2023-03-21T11:24:15.020Z,52.94
2023-03-21T11:26:45.437Z,51.65
2023-03-21T11:29:27.943Z,50.58
2023-03-21T11:32:00.999Z,50.59
2023-03-21T11:34:33.897Z,51.17
2023-03-21T11:37:03.977Z,51.57
2023-03-21T11:39:34.664Z,51.62
2023-03-21T11:42:04.160Z,51.78
2023-03-21T11:44:34.326Z,50.91
2023-03-21T11:47:02.874Z,50.96
2023-03-21T11:49:31.570Z,50.07
2023-03-21T11:52:16.068Z,46.76
2023-03-21T11:54:59.642Z,47.04
2023-03-21T11:57:31.614Z,46.75
2023-03-21T12:00:13.435Z,45.70
2023-03-21T12:03:35.342Z,46.52
2023-03-21T12:06:18.460Z,43.74
2023-03-21T12:08:55.354Z,43.06
2023-03-21T12:11:30.392Z,41.78
2023-03-21T12:14:07.131Z,42.66
2023-03-21T12:16:44.194Z,41.95
2023-03-21T12:19:34.873Z,41.08
2023-03-21T12:22:08.981Z,41.77
2023-03-21T12:24:42.508Z,42.67
2023-03-21T12:27:18.736Z,41.40
2023-03-21T12:30:04.781Z,41.49
2023-03-21T12:33:00.279Z,39.74
2023-03-21T12:35:41.542Z,40.44
2023-03-21T12:38:17.033Z,42.05
2023-03-21T12:41:01.998Z,38.28
2023-03-21T12:43:37.437Z,38.59
2023-03-21T12:46:14.882Z,38.97
2023-03-21T12:48:47.329Z,40.30
2023-03-21T12:51:19.832Z,41.44
2023-03-21T12:53:55.595Z,39.48
2023-03-21T12:56:26.456Z,39.61
2023-03-21T12:58:59.724Z,40.24
2023-03-21T13:01:29.448Z,40.19
2023-03-21T13:04:11.509Z,40.51
2023-03-21T13:06:40.444Z,41.91
2023-03-21T13:09:17.943Z,42.49
2023-03-21T13:11:46.844Z,42.30
2023-03-21T13:14:21.088Z,43.27
2023-03-21T13:16:56.462Z,42.93
2023-03-21T13:19:31.888Z,43.23
2023-03-21T13:22:08.176Z,42.77
2023-03-21T13:24:43.621Z,41.53
2023-03-21T13:27:24.511Z,39.77
2023-03-21T13:29:53.685Z,40.16
2023-03-21T13:32:29.835Z,40.97
2023-03-21T13:35:00.232Z,40.29
2023-03-21T13:37:31.991Z,39.17
2023-03-21T13:40:09.315Z,38.57
2023-03-21T13:42:43.417Z,37.79
2023-03-21T13:45:13.114Z,35.41
2023-03-21T13:47:55.233Z,37.29
2023-03-21T13:50:45.712Z,38.37
2023-03-21T13:53:22.484Z,36.04
2023-03-21T13:56:18.505Z,37.51
2023-03-21T13:58:53.401Z,37.17
2023-03-21T14:01:31.695Z,37.42
2023-03-21T14:04:05.279Z,38.27
2023-03-21T14:06:37.087Z,38.27
2023-03-21T14:09:06.751Z,39.13
2023-03-21T14:11:36.764Z,38.97
2023-03-21T14:14:05.282Z,38.23
2023-03-21T14:16:34.565Z,38.05
2023-03-21T14:19:05.824Z,38.60
2023-03-21T14:21:35.913Z,38.89
2023-03-21T14:24:06.838Z,38.68
2023-03-21T14:26:38.753Z,39.29
2023-03-21T14:29:22.979Z,39.79
2023-03-21T14:31:52.804Z,39.43
2023-03-21T14:34:23.756Z,39.85
2023-03-21T14:36:58.097Z,40.00
2023-03-21T14:39:30.717Z,41.29
2023-03-21T14:42:04.078Z,42.47
2023-03-21T14:44:44.067Z,42.15
2023-03-21T14:47:20.437Z,42.53
2023-03-21T14:49:50.285Z,42.72
2023-03-21T14:52:23.314Z,42.74
2023-03-21T14:54:51.964Z,42.75
2023-03-21T14:57:22.302Z,42.73
2023-03-21T14:59:53.003Z,42.88
2023-03-21T15:02:24.993Z,42.33
2023-03-21T15:04:58.027Z,43.38
2023-03-21T15:07:28.434Z,43.55
2023-03-21T15:09:57.520Z,44.01
2023-03-21T15:12:25.414Z,43.96
2023-03-21T15:14:54.345Z,44.32
2023-03-21T15:17:22.922Z,44.20
2023-03-21T15:19:50.549Z,44.40
2023-03-21T15:22:26.077Z,43.75
2023-03-21T15:24:59.365Z,44.68
2023-03-21T15:27:26.796Z,43.86
2023-03-21T15:29:55.457Z,44.95
2023-03-21T15:32:27.164Z,44.77
2023-03-21T15:34:56.905Z,45.15
2023-03-21T15:37:28.501Z,44.96
2023-03-21T15:40:11.327Z,45.82
2023-03-21T15:42:40.679Z,45.69
2023-03-21T15:45:18.192Z,44.55
2023-03-21T15:47:53.551Z,45.36
2023-03-21T15:50:33.590Z,44.93
2023-03-21T15:53:05.918Z,45.32
2023-03-21T15:55:40.135Z,44.57
2023-03-21T15:58:16.391Z,44.14
2023-03-21T16:00:49.862Z,44.02
2023-03-21T16:03:22.198Z,45.24
2023-03-21T16:06:06.608Z,44.46
2023-03-21T16:08:37.718Z,44.33
2023-03-21T16:11:14.323Z,44.43
2023-03-21T16:13:41.960Z,44.66
2023-03-21T16:16:16.774Z,44.50
2023-03-21T16:18:44.448Z,44.53
2023-03-21T16:21:13.420Z,44.57
2023-03-21T16:23:42.746Z,44.54
2023-03-21T16:26:13.170Z,44.18
2023-03-21T16:28:40.820Z,45.25
2023-03-21T16:31:12.846Z,45.45
2023-03-21T16:33:40.408Z,45.41
2023-03-21T16:36:13.351Z,45.70
2023-03-21T16:38:42.305Z,45.88
2023-03-21T16:41:11.868Z,46.42
2023-03-21T16:43:42.992Z,46.49
2023-03-21T16:46:14.849Z,46.47
2023-03-21T16:48:42.920Z,46.90
2023-03-21T16:51:14.447Z,47.31
2023-03-21T16:53:43.776Z,47.44
2023-03-21T16:56:16.155Z,47.52
2023-03-21T16:58:43.735Z,46.97
2023-03-21T17:01:15.434Z,47.51
2023-03-21T17:03:43.739Z,47.57
2023-03-21T17:06:16.027Z,48.80
2023-03-21T17:08:45.726Z,49.24
2023-03-21T17:11:16.350Z,49.39
2023-03-21T17:13:44.550Z,50.16
2023-03-21T17:16:13.204Z,50.59
2023-03-21T17:18:41.024Z,50.28
2023-03-21T17:21:13.744Z,50.13
2023-03-21T17:23:41.704Z,50.10
2023-03-21T17:26:13.668Z,50.95
2023-03-21T17:28:42.089Z,51.31
2023-03-21T17:31:14.502Z,52.09
2023-03-21T17:33:42.480Z,52.01
2023-03-21T17:36:14.733Z,52.61
2023-03-21T17:38:43.086Z,53.68
2023-03-21T17:41:14.078Z,54.77
2023-03-21T17:43:41.657Z,54.67
2023-03-21T17:46:12.797Z,55.57
2023-03-21T17:48:40.654Z,56.87
2023-03-21T17:51:12.793Z,56.42
2023-03-21T17:53:40.632Z,56.12
2023-03-21T17:56:14.799Z,55.78
2023-03-21T17:58:42.506Z,56.05
2023-03-21T18:01:10.397Z,57.08
2023-03-21T18:03:37.983Z,57.88
2023-03-21T18:06:06.518Z,58.64
2023-03-21T18:08:34.140Z,59.59
2023-03-21T18:11:01.739Z,60.32
2023-03-21T18:13:30.680Z,60.40
2023-03-21T18:15:59.792Z,60.63
2023-03-21T18:18:28.031Z,61.31
2023-03-21T18:20:58.002Z,59.89
2023-03-21T18:23:26.380Z,60.05
2023-03-21T18:25:53.965Z,60.44
2023-03-21T18:28:22.467Z,60.43
2023-03-21T18:31:12.590Z,60.13
2023-03-21T18:33:41.173Z,61.21
2023-03-21T18:36:10.005Z,62.08
2023-03-21T18:38:37.688Z,62.87
2023-03-21T18:41:05.844Z,63.25
2023-03-21T18:46:22.685Z,63.98
2023-03-21T18:48:51.799Z,63.23
2023-03-21T18:51:19.696Z,62.66
2023-03-21T18:53:47.446Z,62.83
2023-03-21T18:56:56.164Z,62.83
2023-03-21T18:59:02.626Z,63.78
2023-03-21T19:01:32.368Z,64.12
2023-03-21T19:06:48.532Z,64.14
2023-03-21T19:09:18.112Z,63.24
2023-03-21T19:11:46.476Z,64.60
2023-03-21T19:14:16.899Z,65.38
2023-03-21T19:17:27.038Z,65.81
2023-03-21T19:19:34.256Z,66.49
2023-03-21T19:22:01.847Z,66.50
2023-03-21T19:24:29.457Z,65.95
2023-03-21T19:26:57.082Z,66.69
2023-03-21T19:29:25.759Z,67.04
2023-03-21T19:31:54.865Z,67.27
2023-03-21T19:34:22.652Z,68.42
2023-03-21T19:36:52.217Z,68.25
2023-03-21T19:39:22.317Z,68.64
2023-03-21T19:41:50.587Z,67.65
2023-03-21T19:44:19.080Z,67.92
2023-03-21T19:46:48.318Z,69.57
2023-03-21T19:49:22.276Z,69.89
2023-03-21T19:51:51.156Z,69.91
2023-03-21T19:54:18.843Z,71.24
2023-03-21T19:56:48.133Z,71.23
2023-03-21T19:59:16.136Z,70.53
2023-03-21T20:01:43.853Z,70.33
2023-03-21T20:04:11.816Z,69.67
2023-03-21T20:06:40.817Z,69.66
2023-03-21T20:11:57.723Z,70.30
2023-03-21T20:14:25.748Z,71.03
2023-03-21T20:16:55.365Z,70.84
2023-03-21T20:19:23.082Z,71.63
2023-03-21T20:21:58.756Z,75.11
2023-03-21T20:24:28.127Z,74.44
2023-03-21T20:26:57.236Z,72.47
2023-03-21T20:32:13.097Z,71.38
2023-03-21T20:34:40.726Z,71.43
2023-03-21T20:37:09.816Z,71.58
2023-03-21T20:39:37.965Z,72.41
2023-03-21T20:42:06.079Z,72.10
2023-03-21T20:44:56.019Z,73.03
2023-03-21T20:47:21.795Z,74.33
2023-03-21T20:49:49.631Z,74.79
2023-03-21T20:55:08.916Z,73.75
2023-03-21T20:57:38.747Z,74.05
2023-03-21T21:00:14.802Z,74.72
2023-03-21T21:02:43.896Z,75.00
2023-03-21T21:05:25.358Z,75.21
2023-03-21T21:07:57.586Z,75.87
2023-03-21T21:10:26.211Z,76.26
2023-03-21T21:12:54.054Z,75.96
2023-03-21T21:15:22.007Z,77.18
2023-03-21T21:18:05.525Z,77.99
2023-03-21T21:20:34.076Z,77.86
2023-03-21T21:23:03.054Z,77.96
2023-03-21T21:25:33.412Z,78.47
2023-03-21T21:28:02.241Z,78.46
2023-03-21T21:30:30.309Z,77.89
2023-03-21T21:33:01.807Z,77.74
2023-03-21T21:35:30.512Z,78.38
2023-03-21T21:37:59.026Z,79.40
2023-03-21T21:40:30.087Z,78.88
2023-03-21T21:43:03.226Z,79.58
2023-03-21T21:45:30.963Z,80.24
2023-03-21T21:47:58.663Z,80.37
2023-03-21T21:50:26.272Z,81.03
2023-03-21T21:52:54.533Z,80.95
2023-03-21T21:55:22.849Z,80.50
2023-03-21T21:57:52.805Z,81.01
2023-03-21T22:00:21.776Z,81.39
2023-03-21T22:02:49.395Z,81.92
2023-03-21T22:05:18.821Z,82.05
2023-03-21T22:07:46.868Z,82.66
2023-03-21T22:10:15.447Z,82.10
2023-03-21T22:12:43.010Z,82.59
2023-03-21T22:15:13.039Z,82.34
2023-03-21T22:17:42.058Z,82.53
2023-03-21T22:20:11.998Z,83.34
2023-03-21T22:22:39.821Z,83.30
2023-03-21T22:25:10.440Z,83.00
2023-03-21T22:27:38.435Z,83.30
2023-03-21T22:30:07.772Z,83.24
2023-03-21T22:32:38.198Z,83.58
2023-03-21T22:35:08.863Z,83.28
2023-03-21T22:37:38.459Z,83.47
2023-03-21T22:40:09.774Z,84.45
2023-03-21T22:42:39.505Z,84.56
2023-03-21T22:45:09.470Z,85.70
2023-03-21T22:47:38.828Z,86.09
2023-03-21T22:50:08.370Z,86.71
2023-03-21T22:52:35.969Z,86.90
2023-03-21T22:55:03.587Z,86.89
2023-03-21T22:57:31.201Z,86.58
2023-03-21T22:59:58.787Z,86.80
2023-03-21T23:02:27.095Z,87.38
2023-03-21T23:04:56.300Z,88.17
2023-03-21T23:07:23.869Z,88.45
2023-03-21T23:09:51.778Z,88.39
2023-03-21T23:12:19.448Z,88.54
2023-03-21T23:14:47.199Z,88.44
2023-03-21T23:17:16.274Z,89.26
2023-03-21T23:19:43.951Z,89.58
2023-03-21T23:22:12.866Z,89.22
2023-03-21T23:24:40.469Z,88.89
2023-03-21T23:27:07.988Z,89.61
2023-03-21T23:29:35.603Z,89.97
2023-03-21T23:32:03.222Z,90.50
2023-03-21T23:34:31.588Z,90.63
2023-03-21T23:36:59.312Z,90.74
2023-03-21T23:39:28.265Z,90.78
2023-03-21T23:41:57.936Z,91.04
2023-03-21T23:44:26.306Z,91.80
2023-03-21T23:46:53.931Z,91.86
2023-03-21T23:49:21.419Z,91.96
2023-03-21T23:51:49.995Z,92.18
2023-03-21T23:54:17.668Z,92.26
2023-03-21T23:56:46.689Z,92.37
2023-03-21T23:59:14.256Z,92.20
